Terminal Aerodrome Forecast
Issued by NWS Sioux Falls, SD

Home | Current Version | Previous Version | Graphics & Text | Print | Product List | Glossary On
Versions: 1 2 3 4 5 6 7 8 9 10 11 12 13 14 15 16 17 18 19
000
FTUS43 KFSD 240520
TAFFSD
TAF
KFSD 240520Z 2406/2506 30008KT P6SM SKC
     FM241400 26006KT P6SM SKC
     FM241800 26010KT P6SM BKN120
     FM250000 30012KT P6SM -RA BKN035
     FM250400 30014G20KT 4SM -SN OVC020=

USA.gov is the U.S. government's official web portal to all federal, state and local government web resources and services.